Time;durP1;ratioP1;P1;durP2;ratioP2;P2;SDS_P1;SDS_P2;PMS_P1;PMS_P2;Temp;Humidity;BMP_temperature;BMP_pressure;BME280_temperature;BME280_humidity;BME280_pressure;Samples;Min_cycle;Max_cycle;Signal;HPM_P1;HPM_P2
2024/01/24 00:00:16;;;;;;;41.93;20.73;;;;;;;7.70;80.16;102047.50;4992641;28;20034;-86
2024/01/24 00:02:42;;;;;;;41.08;19.30;;;;;;;7.66;79.75;102050.84;4975543;28;20037;-87
2024/01/24 00:05:08;;;;;;;36.80;18.80;;;;;;;7.67;80.30;102060.50;4992354;28;20414;-87
2024/01/24 00:07:33;;;;;;;37.47;19.07;;;;;;;7.67;79.77;102059.59;4992560;28;20023;-86
2024/01/24 00:09:58;;;;;;;39.37;20.80;;;;;;;7.65;79.69;102058.66;4992588;28;20038;-87
2024/01/24 00:12:24;;;;;;;43.25;20.65;;;;;;;7.63;80.10;102052.44;4992574;28;20026;-87
2024/01/24 00:14:49;;;;;;;39.77;20.53;;;;;;;7.61;79.75;102055.91;4990964;28;20027;-83
2024/01/24 00:17:15;;;;;;;37.67;19.57;;;;;;;7.56;80.05;102048.69;4991851;28;20037;-86
2024/01/24 00:19:40;;;;;;;37.07;19.00;;;;;;;7.50;79.84;102048.47;4992579;28;20027;-86
2024/01/24 00:22:06;;;;;;;41.30;20.67;;;;;;;7.47;79.82;102047.53;4992041;28;20034;-84
2024/01/24 00:24:31;;;;;;;40.87;20.40;;;;;;;7.47;79.83;102047.53;4997429;28;20088;-86
2024/01/24 00:26:57;;;;;;;37.23;19.17;;;;;;;7.45;80.38;102037.81;4994997;28;20026;-87
2024/01/24 00:29:22;;;;;;;40.30;18.88;;;;;;;7.43;80.14;102035.16;4991748;28;20046;-86
2024/01/24 00:31:48;;;;;;;38.47;19.77;;;;;;;7.44;79.89;102029.06;4974335;28;20058;-87
2024/01/24 00:34:15;;;;;;;30.63;15.63;;;;;;;7.43;80.33;102024.66;4974435;28;20482;-86
2024/01/24 00:36:40;;;;;;;31.67;15.32;;;;;;;7.42;80.48;102027.22;4992130;28;20030;-86
2024/01/24 00:39:07;;;;;;;34.00;14.37;;;;;;;7.43;80.21;102024.66;4991954;28;20463;-84
2024/01/24 00:41:33;;;;;;;28.45;15.43;;;;;;;7.44;80.09;102023.84;5007556;28;20022;-87
2024/01/24 00:43:58;;;;;;;32.43;15.20;;;;;;;7.45;80.39;102022.09;5000876;28;20030;-85
2024/01/24 00:46:26;;;;;;;33.87;16.17;;;;;;;7.42;80.55;102020.25;4991743;28;20029;-87
2024/01/24 00:48:52;;;;;;;33.08;15.55;;;;;;;7.42;80.43;102015.03;4991593;28;20014;-87
2024/01/24 00:51:17;;;;;;;33.80;15.33;;;;;;;7.40;80.46;102013.16;4991467;28;20101;-88
2024/01/24 00:53:52;;;;;;;39.70;16.53;;;;;;;7.38;80.46;102015.75;4991284;28;20030;-88
2024/01/24 00:56:18;;;;;;;39.95;18.38;;;;;;;7.37;80.66;102015.69;4991557;28;20372;-88
2024/01/24 00:58:43;;;;;;;33.90;16.40;;;;;;;7.31;80.73;102011.09;4991285;28;20054;-88
2024/01/24 01:01:10;;;;;;;35.17;16.17;;;;;;;7.29;80.77;102011.06;4990184;28;20047;-87
2024/01/24 01:03:35;;;;;;;31.67;16.63;;;;;;;7.28;80.76;102003.13;4989253;28;20038;-86
2024/01/24 01:06:00;;;;;;;35.28;16.10;;;;;;;7.27;80.43;102001.34;4990250;28;20101;-89
2024/01/24 01:08:26;;;;;;;30.97;14.67;;;;;;;7.26;80.41;102007.41;4990255;28;20026;-87
2024/01/24 01:10:52;;;;;;;28.50;13.50;;;;;;;7.27;80.90;102002.25;4989129;28;20565;-88
2024/01/24 01:13:17;;;;;;;24.08;12.23;;;;;;;7.25;80.21;101998.69;4990401;28;20090;-88
2024/01/24 01:15:43;;;;;;;21.67;11.63;;;;;;;7.23;80.47;102008.16;4989984;28;20037;-87
2024/01/24 01:18:09;;;;;;;29.30;12.53;;;;;;;7.24;80.74;102012.63;4991657;28;20171;-89
2024/01/24 01:20:34;;;;;;;25.80;12.63;;;;;;;7.26;80.46;102012.66;5013284;28;20022;-87
2024/01/24 01:23:00;;;;;;;31.53;13.50;;;;;;;7.22;79.95;102008.13;5011993;28;20034;-85
2024/01/24 01:25:25;;;;;;;33.07;13.60;;;;;;;7.18;80.46;102012.34;4999131;28;20324;-86
2024/01/24 01:27:50;;;;;;;34.17;13.93;;;;;;;7.18;80.94;102007.13;4989916;28;20484;-87
2024/01/24 01:30:16;;;;;;;40.03;14.93;;;;;;;7.13;80.46;102004.34;4991043;28;20030;-88
2024/01/24 01:32:41;;;;;;;27.35;13.60;;;;;;;7.07;80.54;102009.31;4990380;28;20031;-87
2024/01/24 01:35:07;;;;;;;30.17;13.57;;;;;;;7.04;81.33;102014.44;4990285;28;20065;-87
2024/01/24 01:37:33;;;;;;;35.30;14.35;;;;;;;7.01;80.70;102003.84;4990580;28;20022;-86
2024/01/24 01:39:58;;;;;;;31.00;13.80;;;;;;;6.98;80.67;102008.97;4992991;28;20037;-84
2024/01/24 01:42:24;;;;;;;38.10;13.57;;;;;;;6.94;81.17;102007.06;5009411;28;20073;-86
2024/01/24 01:44:49;;;;;;;34.53;12.33;;;;;;;6.91;81.50;102018.31;4991300;28;20518;-85
2024/01/24 01:47:16;;;;;;;37.07;11.83;;;;;;;6.88;81.49;102013.88;4989435;28;20270;-87
2024/01/24 01:49:45;;;;;;;25.75;11.52;;;;;;;6.89;81.29;102018.28;4989645;28;20026;-86
2024/01/24 01:52:11;;;;;;;25.17;10.73;;;;;;;6.89;81.66;102026.13;4990135;28;20035;-85
2024/01/24 01:54:41;;;;;;;27.02;11.52;;;;;;;6.91;82.00;102046.25;4972426;28;20054;-85
2024/01/24 01:57:11;;;;;;;33.42;12.75;;;;;;;6.94;81.58;102043.75;4989780;28;20486;-88
2024/01/24 01:59:46;;;;;;;38.58;14.00;;;;;;;6.98;81.47;102045.66;4950439;28;1144567;-86
2024/01/24 02:02:13;;;;;;;40.53;14.67;;;;;;;6.97;81.14;102033.38;4990780;28;20031;-83
2024/01/24 02:04:38;;;;;;;33.80;14.48;;;;;;;6.94;81.06;102033.25;4990766;28;20470;-89
2024/01/24 02:07:04;;;;;;;34.47;14.65;;;;;;;6.92;81.71;102042.78;4990190;28;20029;-88
2024/01/24 02:09:29;;;;;;;35.30;16.17;;;;;;;6.92;81.78;102046.28;4989984;28;20019;-88
2024/01/24 02:11:55;;;;;;;49.50;18.93;;;;;;;6.94;81.71;102054.22;4990008;28;20084;-86
2024/01/24 02:14:21;;;;;;;39.90;13.90;;;;;;;6.94;81.34;102054.22;4989913;28;20031;-86
2024/01/24 02:16:46;;;;;;;28.73;11.77;;;;;;;6.89;81.52;102057.56;4990345;28;20051;-88
2024/01/24 02:19:11;;;;;;;27.70;11.50;;;;;;;6.91;81.74;102060.22;4989989;28;20033;-89
2024/01/24 02:21:37;;;;;;;39.47;10.77;;;;;;;6.89;82.08;102054.03;4990221;28;20340;-88
2024/01/24 02:24:07;;;;;;;30.52;10.73;;;;;;;6.82;81.49;102058.13;4991611;28;20105;-84
2024/01/24 02:26:33;;;;;;;20.52;9.40;;;;;;;6.81;81.66;102053.72;4996369;28;20041;-88
2024/01/24 02:28:58;;;;;;;20.20;9.30;;;;;;;6.84;82.22;102058.19;4989898;28;20019;-89
2024/01/24 02:31:23;;;;;;;23.90;8.20;;;;;;;6.86;82.02;102051.28;4990075;28;20038;-87
2024/01/24 02:33:49;;;;;;;17.53;7.67;;;;;;;6.83;81.52;102041.56;4990319;28;20662;-83
2024/01/24 02:36:14;;;;;;;24.30;8.50;;;;;;;6.86;81.89;102031.22;4990354;28;20134;-87
2024/01/24 02:38:41;;;;;;;15.20;7.97;;;;;;;6.88;81.71;102039.16;4991348;28;20015;-88
2024/01/24 02:41:07;;;;;;;14.93;7.63;;;;;;;6.85;81.54;102045.13;5005981;28;20508;-87
2024/01/24 02:43:33;;;;;;;15.45;7.18;;;;;;;6.88;81.68;102055.78;5005512;28;20031;-89
2024/01/24 02:46:00;;;;;;;16.85;7.63;;;;;;;6.91;81.46;102048.88;4993358;28;20042;-87
2024/01/24 02:48:26;;;;;;;18.67;8.10;;;;;;;6.89;81.35;102046.16;4993465;28;20483;-88
2024/01/24 02:50:51;;;;;;;17.60;7.50;;;;;;;6.88;81.71;102065.34;4994084;28;20045;-87
2024/01/24 02:53:17;;;;;;;22.25;8.43;;;;;;;6.89;81.65;102057.56;4993728;28;20101;-88
2024/01/24 02:55:42;;;;;;;22.47;9.10;;;;;;;6.91;81.11;102057.59;4993845;28;20109;-87
2024/01/24 02:58:07;;;;;;;17.57;8.60;;;;;;;6.91;81.52;102056.72;4993553;28;20035;-87
2024/01/24 03:00:33;;;;;;;20.08;7.40;;;;;;;6.93;81.18;102057.66;4993249;28;20050;-86
2024/01/24 03:02:58;;;;;;;15.77;7.50;;;;;;;6.93;81.10;102049.81;4993550;28;20510;-87
2024/01/24 03:05:25;;;;;;;14.37;7.40;;;;;;;6.91;81.62;102054.09;4993757;28;20061;-87
2024/01/24 03:07:51;;;;;;;16.00;7.25;;;;;;;6.91;81.82;102059.34;4993476;28;20038;-87
2024/01/24 03:10:17;;;;;;;16.77;7.17;;;;;;;6.88;81.10;102053.16;4992108;28;20037;-87
2024/01/24 03:12:42;;;;;;;18.33;6.30;;;;;;;6.84;81.75;102060.81;4993197;28;20026;-88
2024/01/24 03:15:08;;;;;;;17.60;6.97;;;;;;;6.79;81.04;102065.84;4993054;28;20045;-85
2024/01/24 03:17:33;;;;;;;17.00;7.22;;;;;;;6.78;81.27;102074.53;4992089;28;20023;-85
2024/01/24 03:19:59;;;;;;;26.03;7.93;;;;;;;6.77;81.61;102075.38;4993006;28;20431;-87
2024/01/24 03:22:25;;;;;;;26.98;8.13;;;;;;;6.79;81.99;102073.69;4993078;28;20030;-87
2024/01/24 03:24:53;;;;;;;19.43;7.53;;;;;;;6.81;81.55;102079.91;5001740;28;20438;-87
2024/01/24 03:27:18;;;;;;;23.67;7.45;;;;;;;6.84;81.05;102069.53;4993247;28;20537;-87
2024/01/24 03:29:44;;;;;;;18.53;8.23;;;;;;;6.79;81.67;102058.00;4992753;28;20035;-84
2024/01/24 03:32:09;;;;;;;16.10;7.63;;;;;;;6.75;81.59;102057.00;4993063;28;20156;-87
2024/01/24 03:34:35;;;;;;;15.45;7.53;;;;;;;6.72;81.35;102048.13;4992845;28;20037;-87
2024/01/24 03:37:00;;;;;;;19.33;7.33;;;;;;;6.71;81.78;102047.22;4992892;28;20031;-87
2024/01/24 03:39:25;;;;;;;19.83;7.80;;;;;;;6.72;81.59;102053.34;4992978;28;20795;-88
2024/01/24 03:41:51;;;;;;;18.53;7.50;;;;;;;6.70;81.86;102061.13;5000378;28;20041;-88
2024/01/24 03:44:16;;;;;;;18.87;8.17;;;;;;;6.73;81.86;102061.25;4988351;28;20084;-84
2024/01/24 03:46:41;;;;;;;20.92;7.68;;;;;;;6.70;81.53;102066.38;5012576;28;20513;-88
2024/01/24 03:49:07;;;;;;;16.80;7.47;;;;;;;6.71;81.93;102057.69;5012422;28;20030;-87
2024/01/24 03:51:32;;;;;;;18.17;8.50;;;;;;;6.73;81.53;102060.38;5012520;28;20018;-87
2024/01/24 03:53:58;;;;;;;17.83;8.37;;;;;;;6.73;81.49;102065.59;5005579;28;20382;-87
2024/01/24 03:56:23;;;;;;;18.27;8.23;;;;;;;6.74;81.60;102062.16;4992961;28;20494;-88
2024/01/24 03:58:49;;;;;;;16.00;7.30;;;;;;;6.75;81.66;102061.31;4993159;28;20037;-86
2024/01/24 04:01:15;;;;;;;15.40;7.97;;;;;;;6.75;81.46;102057.00;4991198;28;20513;-87
2024/01/24 04:03:41;;;;;;;17.27;8.50;;;;;;;6.73;81.32;102055.13;4992882;28;20022;-85
2024/01/24 04:06:06;;;;;;;18.13;8.83;;;;;;;6.70;81.50;102057.63;4992860;28;20035;-87
2024/01/24 04:08:31;;;;;;;17.30;8.63;;;;;;;6.69;82.12;102053.22;4992658;28;20049;-88
2024/01/24 04:10:57;;;;;;;15.07;7.90;;;;;;;6.69;82.07;102056.72;4991365;28;20050;-86
2024/01/24 04:13:23;;;;;;;16.30;8.33;;;;;;;6.70;81.70;102052.41;4992932;28;20399;-88
2024/01/24 04:15:49;;;;;;;17.27;8.57;;;;;;;6.69;82.39;102050.63;4992265;28;20379;-87
2024/01/24 04:18:14;;;;;;;16.47;8.53;;;;;;;6.64;82.04;102055.66;4991003;28;20162;-88
2024/01/24 04:20:39;;;;;;;16.67;8.63;;;;;;;6.66;82.14;102056.59;4992142;28;20022;-85
2024/01/24 04:23:05;;;;;;;19.30;9.33;;;;;;;6.68;82.33;102054.94;4991988;28;20069;-87
2024/01/24 04:25:30;;;;;;;17.23;9.25;;;;;;;6.71;81.78;102051.56;5001258;28;20026;-87
2024/01/24 04:27:56;;;;;;;18.63;9.03;;;;;;;6.71;82.32;102052.44;4991917;28;20038;-88
2024/01/24 04:30:22;;;;;;;16.87;8.70;;;;;;;6.72;81.57;102053.34;4991707;28;20034;-87
2024/01/24 04:32:47;;;;;;;16.77;9.25;;;;;;;6.70;82.23;102044.53;4991986;28;20030;-87
2024/01/24 04:35:13;;;;;;;15.80;8.67;;;;;;;6.64;82.60;102044.31;4992057;28;20039;-88
2024/01/24 04:37:38;;;;;;;19.30;8.83;;;;;;;6.60;82.94;102038.03;4992166;28;20030;-88
2024/01/24 04:40:04;;;;;;;14.85;8.25;;;;;;;6.59;82.54;102041.47;4995985;28;20449;-87
2024/01/24 04:42:30;;;;;;;15.10;8.87;;;;;;;6.56;83.11;102031.78;5011694;28;20029;-87
2024/01/24 04:44:55;;;;;;;15.07;8.48;;;;;;;6.54;83.17;102033.44;4974992;28;20038;-88
2024/01/24 04:47:21;;;;;;;28.30;13.03;;;;;;;6.55;82.73;102037.84;4991936;28;20069;-86
2024/01/24 04:49:46;;;;;;;42.57;17.53;;;;;;;6.57;83.27;102043.16;4991737;28;20106;-87
2024/01/24 04:52:15;;;;;;;29.63;13.13;;;;;;;6.60;83.32;102045.88;4990563;28;20061;-88
2024/01/24 04:54:41;;;;;;;22.00;10.98;;;;;;;6.65;83.01;102044.34;4992046;28;20031;-84
2024/01/24 04:57:07;;;;;;;18.80;8.98;;;;;;;6.68;83.02;102054.94;4992146;28;20034;-88
2024/01/24 04:59:32;;;;;;;13.50;7.23;;;;;;;6.70;82.98;102052.41;4991833;28;20487;-88
2024/01/24 05:01:57;;;;;;;13.38;7.20;;;;;;;6.71;83.01;102054.19;4990932;28;20030;-88
2024/01/24 05:04:23;;;;;;;12.00;7.10;;;;;;;6.74;82.23;102059.53;4991203;28;20043;-84
2024/01/24 05:06:49;;;;;;;14.40;7.93;;;;;;;6.76;82.22;102052.63;4991336;28;20085;-87
2024/01/24 05:09:14;;;;;;;12.63;7.10;;;;;;;6.78;82.52;102050.09;4991076;28;20033;-88
2024/01/24 05:11:41;;;;;;;12.60;7.40;;;;;;;6.79;82.80;102060.63;4991199;28;20023;-87
2024/01/24 05:14:07;;;;;;;12.15;6.78;;;;;;;6.80;82.60;102056.28;4991094;28;20105;-88
2024/01/24 05:16:32;;;;;;;13.07;7.50;;;;;;;6.80;82.31;102066.75;4991132;28;20104;-87
2024/01/24 05:18:58;;;;;;;13.20;6.67;;;;;;;6.79;83.15;102071.09;4990049;28;20524;-88
2024/01/24 05:21:23;;;;;;;13.33;7.73;;;;;;;6.82;82.72;102075.56;4991325;28;20018;-86
2024/01/24 05:23:51;;;;;;;13.68;7.55;;;;;;;6.83;82.83;102083.47;4973871;28;20402;-85
2024/01/24 05:26:16;;;;;;;14.52;8.10;;;;;;;6.87;82.94;102082.78;4999517;28;20049;-84
2024/01/24 05:28:42;;;;;;;16.07;8.30;;;;;;;6.91;82.50;102085.53;4991343;28;20027;-86
2024/01/24 05:31:07;;;;;;;15.30;8.37;;;;;;;6.92;82.62;102079.47;4991318;28;20026;-88
2024/01/24 05:33:33;;;;;;;15.70;8.93;;;;;;;6.91;82.83;102080.28;4990453;28;20113;-87
2024/01/24 05:35:59;;;;;;;18.33;9.73;;;;;;;6.87;83.01;102079.25;4990824;28;20088;-87
2024/01/24 05:38:24;;;;;;;21.77;9.77;;;;;;;6.83;82.86;102080.84;4990984;28;20038;-86
2024/01/24 05:40:50;;;;;;;23.25;11.30;;;;;;;6.83;83.22;102067.75;5000883;28;20025;-87
2024/01/24 05:43:15;;;;;;;22.13;11.77;;;;;;;6.83;83.04;102078.22;5005056;28;20460;-88
2024/01/24 05:45:40;;;;;;;21.13;11.40;;;;;;;6.83;83.39;102083.47;4972964;28;20034;-86
2024/01/24 05:48:06;;;;;;;21.90;11.63;;;;;;;6.82;83.65;102081.69;4990679;28;20058;-86
2024/01/24 05:50:31;;;;;;;30.17;14.63;;;;;;;6.79;83.99;102089.41;4990652;28;20038;-88
2024/01/24 05:52:58;;;;;;;25.45;11.45;;;;;;;6.79;83.86;102086.78;4991060;28;20030;-85
2024/01/24 05:55:23;;;;;;;24.27;12.20;;;;;;;6.79;83.19;102092.03;4990955;28;20376;-86
2024/01/24 05:57:49;;;;;;;26.23;12.93;;;;;;;6.75;83.65;102080.56;4990816;28;20033;-86
2024/01/24 06:00:14;;;;;;;24.13;12.33;;;;;;;6.70;83.57;102081.19;4990289;28;20046;-87
2024/01/24 06:02:40;;;;;;;25.80;11.43;;;;;;;6.67;84.24;102081.06;4991319;28;20034;-87
2024/01/24 06:05:07;;;;;;;25.50;12.05;;;;;;;6.66;83.46;102084.53;5006256;28;20027;-86
2024/01/24 06:07:33;;;;;;;22.67;11.85;;;;;;;6.67;83.66;102086.31;5013252;28;20041;-83
2024/01/24 06:09:58;;;;;;;23.07;11.13;;;;;;;6.69;83.83;102089.88;5013283;28;20019;-84
2024/01/24 06:12:24;;;;;;;23.23;11.40;;;;;;;6.68;83.62;102095.94;4996764;28;20473;-87
2024/01/24 06:14:49;;;;;;;21.37;10.20;;;;;;;6.66;83.41;102095.00;4990278;28;20035;-87
2024/01/24 06:17:15;;;;;;;25.67;11.40;;;;;;;6.66;83.38;102095.00;4991397;28;20041;-86
2024/01/24 06:19:42;;;;;;;23.45;11.20;;;;;;;6.61;83.56;102090.44;4990351;28;20080;-86
2024/01/24 06:22:08;;;;;;;25.65;11.30;;;;;;;6.58;83.31;102092.94;4990347;28;20441;-87
2024/01/24 06:24:35;;;;;;;22.17;10.53;;;;;;;6.57;83.86;102098.13;4996229;28;20029;-86
2024/01/24 06:27:01;;;;;;;21.47;9.90;;;;;;;6.55;83.72;102095.41;4992607;28;20274;-86
2024/01/24 06:29:27;;;;;;;20.70;10.18;;;;;;;6.54;83.79;102096.25;4989835;28;20044;-87
2024/01/24 06:31:52;;;;;;;20.13;9.55;;;;;;;6.49;83.25;102097.78;4989971;28;20537;-86
2024/01/24 06:34:18;;;;;;;18.40;9.87;;;;;;;6.46;83.48;102097.66;4990475;28;20026;-87
2024/01/24 06:36:43;;;;;;;21.10;9.93;;;;;;;6.43;83.39;102097.53;4990299;28;20038;-86
2024/01/24 06:39:09;;;;;;;20.27;10.17;;;;;;;6.39;83.47;102106.97;4990134;28;20426;-83
2024/01/24 06:41:35;;;;;;;20.92;10.18;;;;;;;6.37;83.43;102112.94;5006342;28;20422;-87
2024/01/24 06:44:01;;;;;;;23.40;11.20;;;;;;;6.33;84.14;102117.19;5002865;28;20034;-87
2024/01/24 06:46:26;;;;;;;24.57;12.27;;;;;;;6.32;83.84;102111.03;5010236;28;20207;-87
2024/01/24 06:48:52;;;;;;;26.10;13.75;;;;;;;6.34;83.80;102112.81;4992290;28;20105;-87
2024/01/24 06:51:18;;;;;;;25.13;11.53;;;;;;;6.34;83.77;102112.81;5009597;28;20034;-85
2024/01/24 06:53:44;;;;;;;24.95;10.80;;;;;;;6.34;83.43;102120.66;5009712;28;20105;-87
2024/01/24 06:56:09;;;;;;;21.30;9.80;;;;;;;6.35;83.69;102125.97;5009741;28;20034;-87
2024/01/24 06:58:36;;;;;;;21.87;10.30;;;;;;;6.38;84.02;102127.81;5009616;28;20034;-85
2024/01/24 07:01:02;;;;;;;16.88;9.07;;;;;;;6.38;83.81;102125.19;5009223;28;20054;-86
2024/01/24 07:03:27;;;;;;;18.73;8.43;;;;;;;6.39;83.62;102121.75;5009858;28;20185;-86
2024/01/24 07:05:53;;;;;;;18.98;9.15;;;;;;;6.38;84.43;102126.13;5009304;28;20053;-84
2024/01/24 07:08:18;;;;;;;18.63;9.43;;;;;;;6.36;84.27;102126.84;5009481;28;20044;-85
2024/01/24 07:10:44;;;;;;;18.73;9.40;;;;;;;6.30;84.00;102128.38;5009506;28;20408;-85
2024/01/24 07:13:10;;;;;;;16.40;8.50;;;;;;;6.29;83.92;102126.59;5009511;28;20030;-87
2024/01/24 07:15:35;;;;;;;17.97;9.30;;;;;;;6.28;83.96;102132.66;4994882;28;20046;-79
2024/01/24 07:18:00;;;;;;;18.60;8.90;;;;;;;6.27;84.11;102133.50;4989657;28;20077;-79
2024/01/24 07:20:26;;;;;;;19.23;9.68;;;;;;;6.29;83.43;102128.34;4989640;28;20089;-82
2024/01/24 07:22:51;;;;;;;19.57;10.50;;;;;;;6.26;84.04;102117.72;4989690;28;20045;-81
2024/01/24 07:25:20;;;;;;;17.27;8.97;;;;;;;6.22;83.88;102129.78;4997061;28;20100;-78
2024/01/24 07:27:46;;;;;;;17.83;9.43;;;;;;;6.20;83.58;102125.31;4993257;28;20121;-77
2024/01/24 07:30:12;;;;;;;19.23;9.63;;;;;;;6.15;84.66;102119.88;4992918;28;20523;-76
2024/01/24 07:32:40;;;;;;;17.40;9.73;;;;;;;6.09;84.75;102136.19;4995433;28;20037;-87
2024/01/24 07:35:07;;;;;;;19.52;10.13;;;;;;;6.09;84.30;102137.91;4993382;28;20624;-85
2024/01/24 07:37:32;;;;;;;16.48;9.50;;;;;;;6.09;84.03;102135.28;4985329;28;20154;-82
2024/01/24 07:39:57;;;;;;;17.97;9.47;;;;;;;6.09;84.09;102140.53;4995313;28;20112;-85
2024/01/24 07:42:23;;;;;;;15.10;8.33;;;;;;;6.09;84.30;102144.03;4996336;28;20030;-85
2024/01/24 07:44:48;;;;;;;17.73;8.30;;;;;;;6.13;84.26;102152.91;5000700;28;20034;-86
2024/01/24 07:47:14;;;;;;;15.73;8.93;;;;;;;6.19;84.57;102158.44;4991794;28;20081;-86
2024/01/24 07:49:39;;;;;;;21.63;9.73;;;;;;;6.24;83.70;102151.69;4992861;28;20265;-85
2024/01/24 07:52:05;;;;;;;19.50;9.17;;;;;;;6.25;83.86;102149.94;4992840;28;20022;-84
2024/01/24 07:54:30;;;;;;;22.33;8.95;;;;;;;6.28;84.25;102156.22;4992704;28;20182;-86
2024/01/24 07:56:56;;;;;;;22.37;9.50;;;;;;;6.29;83.66;102158.00;4992839;28;20065;-86
2024/01/24 07:59:21;;;;;;;19.83;10.03;;;;;;;6.30;83.62;102154.56;4992460;28;20066;-86
2024/01/24 08:01:47;;;;;;;25.52;11.43;;;;;;;6.30;85.02;102162.41;4992568;28;20394;-80
2024/01/24 08:04:13;;;;;;;23.00;9.80;;;;;;;6.30;84.62;102159.78;4992414;28;20061;-83
2024/01/24 08:06:40;;;;;;;20.52;9.65;;;;;;;6.34;84.49;102162.53;4992511;28;20093;-85
2024/01/24 08:09:06;;;;;;;20.20;9.25;;;;;;;6.39;84.12;102168.84;4992497;28;20054;-86
2024/01/24 08:11:32;;;;;;;19.92;9.55;;;;;;;6.46;84.39;102170.94;4992381;28;20105;-86
2024/01/24 08:13:57;;;;;;;23.90;11.00;;;;;;;6.51;84.54;102164.19;4992367;28;20479;-87
2024/01/24 08:16:23;;;;;;;21.23;9.50;;;;;;;6.49;85.67;102172.78;4974821;28;20026;-86
2024/01/24 08:18:48;;;;;;;21.52;9.65;;;;;;;6.51;84.69;102164.19;4992179;28;20494;-86
2024/01/24 08:21:15;;;;;;;22.00;9.90;;;;;;;6.53;84.74;102167.75;4992140;28;20387;-84
2024/01/24 08:23:40;;;;;;;21.23;10.45;;;;;;;6.53;86.62;102169.50;4991379;28;20109;-86
2024/01/24 08:26:07;;;;;;;19.27;9.87;;;;;;;6.57;86.07;102159.19;5000177;28;20113;-86
2024/01/24 08:28:33;;;;;;;21.38;10.20;;;;;;;6.60;85.87;102156.72;4991887;28;20033;-85
2024/01/24 08:30:58;;;;;;;18.50;9.07;;;;;;;6.63;85.80;102165.53;4991791;28;20030;-86
2024/01/24 08:33:24;;;;;;;15.60;8.20;;;;;;;6.66;85.47;102168.31;4991878;28;20025;-79
2024/01/24 08:35:49;;;;;;;19.60;9.13;;;;;;;6.72;85.38;102160.69;4991274;28;20344;-85
2024/01/24 08:38:15;;;;;;;16.33;8.73;;;;;;;6.77;85.85;102161.78;4991723;28;20105;-86
2024/01/24 08:40:40;;;;;;;15.00;8.03;;;;;;;6.82;85.66;102164.59;5000539;28;20510;-83
2024/01/24 08:43:05;;;;;;;15.80;7.47;;;;;;;6.88;85.17;102171.00;5007412;28;20031;-86
2024/01/24 08:45:31;;;;;;;17.00;8.23;;;;;;;6.95;85.30;102160.78;4991383;28;20293;-86
2024/01/24 08:47:56;;;;;;;17.60;8.73;;;;;;;6.98;85.42;102150.41;4991668;28;20056;-86
2024/01/24 08:50:22;;;;;;;16.93;7.87;;;;;;;7.00;84.93;102164.47;4991640;28;20034;-85
2024/01/24 08:52:50;;;;;;;17.80;8.15;;;;;;;7.07;84.80;102168.25;4991641;28;20481;-85
2024/01/24 08:55:16;;;;;;;16.53;9.17;;;;;;;7.11;85.84;102164.91;4991600;28;20041;-85
2024/01/24 08:57:42;;;;;;;16.95;7.47;;;;;;;7.17;84.93;102168.69;4991477;28;20022;-84
2024/01/24 09:00:09;;;;;;;15.80;8.73;;;;;;;7.23;86.02;102167.13;4991071;28;20038;-87
2024/01/24 09:02:35;;;;;;;16.27;9.05;;;;;;;7.26;86.02;102162.94;4991676;28;20030;-86
2024/01/24 09:05:00;;;;;;;18.17;8.90;;;;;;;7.30;86.10;102169.16;4991098;28;20121;-86
2024/01/24 09:07:26;;;;;;;19.03;7.87;;;;;;;7.35;85.83;102166.72;4991404;28;20033;-86
2024/01/24 09:09:51;;;;;;;15.25;8.50;;;;;;;7.40;85.59;102173.03;4991374;28;20030;-86
2024/01/24 09:12:17;;;;;;;19.00;8.23;;;;;;;7.47;85.25;102173.34;4991132;28;20030;-84
2024/01/24 09:14:46;;;;;;;17.83;9.30;;;;;;;7.60;86.07;102173.84;4990951;28;20033;-85
2024/01/24 09:17:12;;;;;;;18.58;10.35;;;;;;;7.69;86.12;102179.44;4990787;28;20461;-87
2024/01/24 09:19:40;;;;;;;19.27;10.20;;;;;;;7.75;86.69;102182.31;4990828;28;20084;-86
2024/01/24 09:22:05;;;;;;;18.80;9.55;;;;;;;7.84;85.81;102183.50;4990931;28;20027;-83
2024/01/24 09:24:31;;;;;;;23.60;9.80;;;;;;;7.95;85.49;102182.16;4996454;28;20036;-82
2024/01/24 09:26:56;;;;;;;20.00;10.37;;;;;;;8.08;86.93;102186.16;4993939;28;20045;-84
2024/01/24 09:29:21;;;;;;;16.03;9.47;;;;;;;8.18;86.65;102182.13;4990641;28;20073;-84
2024/01/24 09:31:47;;;;;;;26.67;13.45;;;;;;;8.28;85.91;102186.88;4990822;28;20034;-87
2024/01/24 09:34:14;;;;;;;20.67;9.17;;;;;;;8.42;85.78;102183.88;4991120;28;20031;-87
2024/01/24 09:36:39;;;;;;;16.90;9.00;;;;;;;8.56;86.21;102182.66;4990694;28;20487;-86
2024/01/24 09:39:04;;;;;;;18.87;9.67;;;;;;;8.68;85.89;102186.56;4990759;28;20027;-83
2024/01/24 09:41:38;;;;;;;18.88;8.98;;;;;;;8.73;85.91;102188.50;5006746;28;20425;-85
2024/01/24 09:44:08;;;;;;;15.43;7.80;;;;;;;8.82;85.25;102190.56;4998102;28;20042;-86
2024/01/24 09:46:37;;;;;;;19.23;8.90;;;;;;;8.97;86.05;102189.28;4990636;28;20053;-86
2024/01/24 09:49:03;;;;;;;15.43;7.32;;;;;;;9.12;85.61;102184.53;4990421;28;20467;-87
2024/01/24 09:51:36;;;;;;;13.68;7.20;;;;;;;9.23;85.22;102191.88;4990835;28;20037;-87
2024/01/24 09:54:05;;;;;;;20.80;7.80;;;;;;;9.29;84.98;102194.72;4990397;28;20038;-86
2024/01/24 09:56:34;;;;;;;11.53;6.53;;;;;;;9.34;84.97;102195.75;4990896;28;20105;-87
2024/01/24 09:59:01;;;;;;;13.30;6.32;;;;;;;9.38;84.66;102197.63;4990354;28;20054;-84
2024/01/24 10:01:31;;;;;;;12.30;6.28;;;;;;;9.42;84.74;102204.78;4990467;28;20034;-83
2024/01/24 10:03:58;;;;;;;13.10;6.75;;;;;;;9.52;84.40;102194.53;4990324;28;20058;-86
2024/01/24 10:06:24;;;;;;;14.10;6.93;;;;;;;9.58;84.70;102200.00;4990744;28;20109;-80
2024/01/24 10:08:49;;;;;;;16.03;7.43;;;;;;;9.59;84.58;102201.81;4990189;28;20452;-86
2024/01/24 10:11:14;;;;;;;15.13;7.37;;;;;;;9.61;84.82;102200.97;4990450;28;20018;-87
2024/01/24 10:13:40;;;;;;;14.88;7.50;;;;;;;9.66;85.06;102198.50;4990418;28;20475;-84
2024/01/24 10:16:07;;;;;;;17.73;7.07;;;;;;;9.71;84.83;102191.63;4990005;28;20506;-87
2024/01/24 10:18:34;;;;;;;15.88;7.65;;;;;;;9.77;84.85;102180.41;4990254;28;20030;-87
2024/01/24 10:21:03;;;;;;;22.95;8.82;;;;;;;9.86;85.01;102182.44;4990223;28;20153;-86
2024/01/24 10:23:29;;;;;;;19.73;8.53;;;;;;;9.95;84.86;102177.44;4990191;28;20027;-86
2024/01/24 10:25:55;;;;;;;18.80;7.38;;;;;;;10.01;84.46;102179.38;4998850;28;20121;-86
2024/01/24 10:28:21;;;;;;;11.50;6.75;;;;;;;10.09;84.29;102179.59;4989986;28;20142;-85
2024/01/24 10:30:47;;;;;;;15.57;6.73;;;;;;;10.18;84.53;102177.22;4990232;28;20024;-87
2024/01/24 10:33:13;;;;;;;13.10;7.00;;;;;;;10.23;84.41;102183.50;4990251;28;20015;-87
2024/01/24 10:35:38;;;;;;;12.60;6.37;;;;;;;10.25;84.38;102183.56;4990247;28;20514;-87
2024/01/24 10:38:05;;;;;;;14.82;6.50;;;;;;;10.27;84.10;102185.41;4990148;28;20022;-84
2024/01/24 10:40:31;;;;;;;13.27;6.75;;;;;;;10.33;84.06;102188.19;4997652;28;20024;-84
2024/01/24 10:43:02;;;;;;;11.77;6.20;;;;;;;10.39;84.27;102183.94;5007388;28;20021;-87
2024/01/24 10:45:31;;;;;;;12.25;6.57;;;;;;;10.44;83.88;102182.34;4990069;28;20263;-79
2024/01/24 10:47:58;;;;;;;9.73;5.53;;;;;;;10.56;84.01;102180.06;4989972;28;20049;-88
2024/01/24 10:50:24;;;;;;;12.38;4.55;;;;;;;10.66;83.94;102167.13;5008044;28;20022;-81
2024/01/24 10:52:51;;;;;;;8.73;4.53;;;;;;;10.77;84.25;102169.19;5005468;28;20059;-78
2024/01/24 10:55:17;;;;;;;10.83;4.33;;;;;;;10.89;84.04;102167.72;5002062;28;20451;-82
2024/01/24 10:57:44;;;;;;;9.10;4.93;;;;;;;10.94;83.51;102175.72;4991212;28;20130;-86
2024/01/24 11:00:11;;;;;;;8.73;4.32;;;;;;;11.01;83.64;102164.50;4992538;28;20399;-87
2024/01/24 11:02:41;;;;;;;10.75;4.82;;;;;;;11.06;83.62;102161.13;4994155;28;20030;-86
2024/01/24 11:05:10;;;;;;;9.18;4.68;;;;;;;11.13;83.44;102162.16;4993655;28;20399;-87
2024/01/24 11:07:43;;;;;;;11.50;4.50;;;;;;;11.19;83.44;102159.66;4993857;28;20594;-83
2024/01/24 11:10:46;;;;;;;9.52;4.38;;;;;;;11.27;83.35;102145.78;4993299;28;20479;-83
2024/01/24 11:13:12;;;;;;;11.18;4.28;;;;;;;11.34;83.27;102145.06;4970848;28;20034;-87
2024/01/24 11:15:37;;;;;;;8.57;4.20;;;;;;;11.39;83.35;102148.69;4974195;28;20019;-84